createdAt,value
2023-04-15T00:02:57.180Z,99268.47
2023-04-15T00:05:59.948Z,99267.63
2023-04-15T00:09:02.462Z,99267.84
2023-04-15T00:12:05.257Z,99272.44
2023-04-15T00:15:09.148Z,99268.16
2023-04-15T00:18:13.187Z,99263.66
2023-04-15T00:21:15.193Z,99270.00
2023-04-15T00:24:17.658Z,99267.63
2023-04-15T00:27:19.685Z,99271.72
2023-04-15T00:30:22.061Z,99267.00
2023-04-15T00:33:24.078Z,99265.84
2023-04-15T00:36:28.330Z,99263.25
2023-04-15T00:39:30.925Z,99259.91
2023-04-15T00:42:34.869Z,99252.38
2023-04-15T00:45:37.353Z,99257.59
2023-04-15T00:48:40.782Z,99257.19
2023-04-15T00:51:42.765Z,99260.72
2023-04-15T00:54:45.090Z,99261.44
2023-04-15T00:57:47.337Z,99258.97
2023-04-15T01:00:49.636Z,99246.09
2023-04-15T01:03:52.134Z,99246.41
2023-04-15T01:06:54.502Z,99250.47
2023-04-15T01:09:57.269Z,99249.62
2023-04-15T01:12:59.604Z,99249.81
2023-04-15T01:16:02.985Z,99241.38
2023-04-15T01:19:07.210Z,99243.75
2023-04-15T01:22:09.477Z,99242.09
2023-04-15T01:25:17.801Z,99242.97
2023-04-15T01:28:20.406Z,99242.22
2023-04-15T01:31:22.974Z,99242.19
2023-04-15T01:34:25.026Z,99250.88
2023-04-15T01:37:28.900Z,99249.84
2023-04-15T01:40:30.919Z,99246.53
2023-04-15T01:43:34.499Z,99254.59
2023-04-15T01:46:37.323Z,99252.94
2023-04-15T01:49:39.596Z,99253.25
2023-04-15T01:52:41.630Z,99252.63
2023-04-15T01:55:43.879Z,99252.03
2023-04-15T01:58:46.466Z,99255.81
2023-04-15T02:01:49.028Z,99252.84
2023-04-15T02:04:51.412Z,99257.25
2023-04-15T02:07:54.476Z,99261.81
2023-04-15T02:10:56.895Z,99261.69
2023-04-15T02:14:00.169Z,99261.34
2023-04-15T02:17:07.231Z,99263.31
2023-04-15T02:20:09.827Z,99262.47
2023-04-15T02:23:12.160Z,99269.06
2023-04-15T02:26:14.389Z,99264.28
2023-04-15T02:29:16.726Z,99258.06
2023-04-15T02:32:18.843Z,99268.91
2023-04-15T02:35:22.651Z,99270.91
2023-04-15T02:38:24.831Z,99271.66
2023-04-15T02:41:28.649Z,99270.66
2023-04-15T02:44:31.706Z,99269.16
2023-04-15T02:47:34.793Z,99268.91
2023-04-15T02:50:39.864Z,99276.25
2023-04-15T02:53:43.318Z,99264.44
2023-04-15T02:56:45.442Z,99262.75
2023-04-15T02:59:47.742Z,99261.09
2023-04-15T03:02:52.498Z,99257.16
2023-04-15T03:05:55.252Z,99256.56
2023-04-15T03:08:57.327Z,99262.16
2023-04-15T03:11:59.634Z,99267.47
2023-04-15T03:15:02.171Z,99265.06
2023-04-15T03:18:05.877Z,99265.00
2023-04-15T03:21:08.983Z,99260.03
2023-04-15T03:24:11.963Z,99261.06
2023-04-15T03:27:14.128Z,99259.16
2023-04-15T03:30:17.137Z,99250.97
2023-04-15T03:33:19.288Z,99257.41
2023-04-15T03:36:21.590Z,99264.50
2023-04-15T03:39:23.620Z,99262.13
2023-04-15T03:42:26.114Z,99259.91
2023-04-15T03:45:28.168Z,99258.62
2023-04-15T03:48:30.601Z,99263.53
2023-04-15T03:51:32.681Z,99260.81
2023-04-15T03:54:34.992Z,99257.84
2023-04-15T03:57:39.722Z,99261.66
2023-04-15T04:00:42.747Z,99256.91
2023-04-15T04:03:45.185Z,99248.50
2023-04-15T04:06:47.248Z,99255.25
2023-04-15T04:09:49.608Z,99257.62
2023-04-15T04:12:52.027Z,99257.44
2023-04-15T04:15:54.336Z,99262.22
2023-04-15T04:18:56.427Z,99259.34
2023-04-15T04:21:58.789Z,99251.84
2023-04-15T04:25:02.560Z,99247.41
2023-04-15T04:28:04.810Z,99258.41
2023-04-15T04:31:07.408Z,99256.53
2023-04-15T04:34:09.755Z,99252.41
2023-04-15T04:37:11.747Z,99255.47
2023-04-15T04:40:14.156Z,99251.34
2023-04-15T04:43:16.173Z,99258.88
2023-04-15T04:46:18.657Z,99256.78
2023-04-15T04:49:20.863Z,99262.53
2023-04-15T04:52:23.111Z,99266.88
2023-04-15T04:55:25.073Z,99265.56
2023-04-15T04:58:27.438Z,99272.09
2023-04-15T05:01:29.540Z,99269.22
2023-04-15T05:04:32.076Z,99267.09
2023-04-15T05:07:35.476Z,99271.72
2023-04-15T05:10:37.761Z,99268.41
2023-04-15T05:13:39.811Z,99259.75
2023-04-15T05:16:42.207Z,99265.00
2023-04-15T05:19:44.189Z,99268.16
2023-04-15T05:22:46.516Z,99276.03
2023-04-15T05:25:48.485Z,99266.25
2023-04-15T05:28:50.765Z,99263.84
2023-04-15T05:31:55.090Z,99274.31
2023-04-15T05:34:57.428Z,99272.22
2023-04-15T05:38:00.028Z,99276.84
2023-04-15T05:41:02.303Z,99270.97
2023-04-15T05:44:04.361Z,99278.97
2023-04-15T05:47:07.906Z,99275.69
2023-04-15T05:50:10.262Z,99282.31
2023-04-15T05:53:12.498Z,99285.50
2023-04-15T05:56:14.445Z,99291.34
2023-04-15T05:59:16.756Z,99295.69
2023-04-15T06:02:19.075Z,99291.03
2023-04-15T06:05:21.381Z,99290.34
2023-04-15T06:08:23.475Z,99299.50
2023-04-15T06:11:26.781Z,99301.41
2023-04-15T06:14:28.808Z,99305.09
2023-04-15T06:17:31.271Z,99315.16
2023-04-15T06:20:33.458Z,99307.84
2023-04-15T06:23:36.404Z,99312.53
2023-04-15T06:26:38.379Z,99313.09
2023-04-15T06:29:40.939Z,99309.09
2023-04-15T06:32:43.280Z,99312.97
2023-04-15T06:35:45.663Z,99323.44
2023-04-15T06:38:47.630Z,99321.78
2023-04-15T06:41:49.920Z,99329.78
2023-04-15T06:44:52.024Z,99329.09
2023-04-15T06:47:54.392Z,99330.97
2023-04-15T06:50:56.540Z,99332.44
2023-04-15T06:53:58.808Z,99334.47
2023-04-15T06:57:00.755Z,99322.63
2023-04-15T07:00:05.702Z,99333.97
2023-04-15T07:03:10.955Z,99333.75
2023-04-15T07:06:13.278Z,99331.22
2023-04-15T07:09:15.362Z,99325.16
2023-04-15T07:12:17.990Z,99331.25
2023-04-15T07:15:19.990Z,99339.16
2023-04-15T07:18:22.236Z,99343.03
2023-04-15T07:21:24.491Z,99338.87
2023-04-15T07:24:26.864Z,99340.22
2023-04-15T07:27:28.854Z,99338.06
2023-04-15T07:30:31.110Z,99343.56
2023-04-15T07:33:33.094Z,99339.91
2023-04-15T07:36:35.444Z,99338.97
2023-04-15T07:39:37.534Z,99341.31
2023-04-15T07:42:41.381Z,99341.66
2023-04-15T07:45:43.562Z,99346.84
2023-04-15T07:48:46.481Z,99341.66
2023-04-15T07:51:49.164Z,99340.88
2023-04-15T07:54:51.671Z,99336.03
2023-04-15T07:57:53.662Z,99336.81
2023-04-15T08:00:55.991Z,99332.78
2023-04-15T08:03:58.995Z,99342.59
2023-04-15T08:07:01.035Z,99341.72
2023-04-15T08:10:03.372Z,99345.56
2023-04-15T08:13:05.384Z,99347.91
2023-04-15T08:16:14.901Z,99334.41
2023-04-15T08:19:17.152Z,99343.00
2023-04-15T08:22:21.177Z,99343.56
2023-04-15T08:25:23.894Z,99351.16
2023-04-15T08:28:26.282Z,99358.81
2023-04-15T08:31:29.765Z,99363.13
2023-04-15T08:34:32.133Z,99364.59
2023-04-15T08:37:34.075Z,99365.31
2023-04-15T08:40:41.294Z,99362.53
2023-04-15T08:43:52.577Z,99363.63
2023-04-15T08:46:57.137Z,99365.47
2023-04-15T08:49:59.330Z,99363.69
2023-04-15T08:53:02.534Z,99370.09
2023-04-15T08:56:06.166Z,99378.03
2023-04-15T08:59:08.929Z,99366.88
2023-04-15T09:02:11.928Z,99370.84
2023-04-15T09:05:14.383Z,99378.50
2023-04-15T09:08:16.406Z,99372.69
2023-04-15T09:11:20.247Z,99381.72
2023-04-15T09:14:22.807Z,99369.41
2023-04-15T09:17:26.708Z,99373.00
2023-04-15T09:20:28.698Z,99379.38
2023-04-15T09:23:31.158Z,99378.16
2023-04-15T09:26:34.518Z,99388.69
2023-04-15T09:29:37.409Z,99382.97
2023-04-15T09:32:47.921Z,99388.53
2023-04-15T09:36:06.005Z,99382.22
2023-04-15T09:39:07.988Z,99379.12
2023-04-15T09:42:10.205Z,99379.50
2023-04-15T09:45:12.308Z,99384.94
2023-04-15T09:48:25.389Z,99379.97
2023-04-15T09:51:34.537Z,99383.34
2023-04-15T09:54:37.600Z,99376.53
2023-04-15T09:57:41.375Z,99392.75
2023-04-15T10:00:43.958Z,99383.28
2023-04-15T10:03:46.905Z,99397.03
2023-04-15T10:06:49.090Z,99380.81
2023-04-15T10:09:51.928Z,99390.53
2023-04-15T10:12:54.500Z,99391.63
2023-04-15T10:16:07.362Z,99391.63
2023-04-15T10:19:09.610Z,99399.66
2023-04-15T10:22:15.093Z,99400.63
2023-04-15T10:25:17.117Z,99402.03
2023-04-15T10:28:19.676Z,99392.88
2023-04-15T10:31:22.066Z,99406.72
2023-04-15T10:34:24.770Z,99401.38
2023-04-15T10:37:34.454Z,99406.84
2023-04-15T10:40:38.869Z,99409.47
2023-04-15T10:43:46.298Z,99406.87
2023-04-15T10:46:51.765Z,99405.22
2023-04-15T10:50:01.429Z,99415.06
2023-04-15T10:53:04.904Z,99417.53
2023-04-15T10:56:07.061Z,99415.22
2023-04-15T10:59:11.915Z,99414.34
2023-04-15T11:02:14.398Z,99422.81
2023-04-15T11:05:17.822Z,99418.12
2023-04-15T11:08:20.542Z,99431.00
2023-04-15T11:11:22.952Z,99432.53
2023-04-15T11:14:24.931Z,99434.59
2023-04-15T11:17:28.838Z,99430.44
2023-04-15T11:20:32.131Z,99433.09
2023-04-15T11:23:44.123Z,99431.13
2023-04-15T11:26:46.094Z,99432.81
2023-04-15T11:29:48.359Z,99431.84
2023-04-15T11:32:51.486Z,99423.53
2023-04-15T11:35:55.121Z,99428.69
2023-04-15T11:38:58.101Z,99421.59
2023-04-15T11:42:00.409Z,99436.84
2023-04-15T11:45:09.513Z,99430.63
2023-04-15T11:48:13.397Z,99434.41
2023-04-15T11:51:15.459Z,99432.66
2023-04-15T11:54:21.000Z,99435.44
2023-04-15T11:57:22.997Z,99431.16
2023-04-15T12:00:25.232Z,99432.38
2023-04-15T12:03:28.773Z,99440.53
2023-04-15T12:06:38.778Z,99437.63
2023-04-15T12:09:41.320Z,99431.44
2023-04-15T12:12:43.357Z,99439.63
2023-04-15T12:15:45.625Z,99437.16
2023-04-15T12:19:08.491Z,99449.56
2023-04-15T12:22:15.451Z,99443.69
2023-04-15T12:25:17.510Z,99430.84
2023-04-15T12:28:20.415Z,99434.91
2023-04-15T12:31:23.616Z,99427.94
2023-04-15T12:34:30.566Z,99438.22
2023-04-15T12:37:32.562Z,99444.87
2023-04-15T12:40:34.853Z,99452.34
2023-04-15T12:43:36.989Z,99440.41
2023-04-15T12:46:39.329Z,99446.28
2023-04-15T12:49:41.562Z,99444.59
2023-04-15T12:52:43.861Z,99448.19
2023-04-15T12:55:45.789Z,99444.59
2023-04-15T12:58:48.069Z,99449.97
2023-04-15T13:01:51.016Z,99457.91
2023-04-15T13:04:53.589Z,99448.97
2023-04-15T13:07:55.567Z,99448.94
2023-04-15T13:10:57.895Z,99450.50
2023-04-15T13:14:07.138Z,99464.00
2023-04-15T13:17:10.345Z,99457.31
2023-04-15T13:20:12.377Z,99456.91
2023-04-15T13:23:14.944Z,99460.66
2023-04-15T13:26:17.646Z,99458.31
2023-04-15T13:29:20.161Z,99460.25
2023-04-15T13:32:22.225Z,99464.91
2023-04-15T13:35:24.609Z,99466.66
2023-04-15T13:38:26.681Z,99464.47
2023-04-15T13:41:29.018Z,99465.69
2023-04-15T13:44:31.137Z,99467.50
2023-04-15T13:47:33.446Z,99469.66
2023-04-15T13:50:35.611Z,99474.41
2023-04-15T13:53:39.607Z,99477.53
2023-04-15T13:56:43.075Z,99474.63
2023-04-15T13:59:45.427Z,99472.16
2023-04-15T14:02:47.512Z,99475.44
2023-04-15T14:05:55.754Z,99475.81
2023-04-15T14:08:57.759Z,99476.94
2023-04-15T14:12:01.357Z,99480.34
2023-04-15T14:15:03.618Z,99479.81
2023-04-15T14:18:05.890Z,99480.63
2023-04-15T14:21:07.881Z,99485.09
2023-04-15T14:24:11.000Z,99486.41
2023-04-15T14:27:13.015Z,99489.66
2023-04-15T14:30:15.555Z,99493.44
2023-04-15T14:33:17.553Z,99497.13
2023-04-15T14:36:20.510Z,99503.97
2023-04-15T14:39:22.458Z,99499.34
2023-04-15T14:42:25.576Z,99498.78
2023-04-15T14:45:27.595Z,99506.81
2023-04-15T14:48:31.533Z,99511.78
2023-04-15T14:51:33.627Z,99512.41
2023-04-15T14:54:35.866Z,99508.22
2023-04-15T14:57:38.226Z,99504.91
2023-04-15T15:00:42.048Z,99515.03
2023-04-15T15:03:44.190Z,99508.66
2023-04-15T15:06:48.968Z,99510.44
2023-04-15T15:09:51.170Z,99506.59
2023-04-15T15:12:53.435Z,99513.87
2023-04-15T15:15:55.566Z,99522.47
2023-04-15T15:18:57.891Z,99522.19
2023-04-15T15:21:59.915Z,99526.63
2023-04-15T15:25:02.210Z,99526.84
2023-04-15T15:28:04.419Z,99529.66
2023-04-15T15:31:06.700Z,99528.25
2023-04-15T15:34:08.669Z,99532.09
2023-04-15T15:37:10.898Z,99536.37
2023-04-15T15:40:12.975Z,99543.13
2023-04-15T15:43:15.288Z,99558.53
2023-04-15T15:46:17.430Z,99558.34
2023-04-15T15:49:19.932Z,99568.66
2023-04-15T15:52:21.894Z,99570.09
2023-04-15T15:55:25.724Z,99568.81
2023-04-15T15:58:27.659Z,99576.13
2023-04-15T16:01:29.993Z,99587.63
2023-04-15T16:04:32.413Z,99596.37
2023-04-15T16:07:34.579Z,99588.41
2023-04-15T16:10:40.066Z,99587.00
2023-04-15T16:13:42.101Z,99593.16
2023-04-15T16:16:44.432Z,99589.00
2023-04-15T16:19:57.430Z,99585.81
2023-04-15T16:23:09.045Z,99594.34
2023-04-15T16:26:11.032Z,99586.72
2023-04-15T16:29:13.464Z,99587.19
2023-04-15T16:32:16.893Z,99576.34
2023-04-15T16:35:19.314Z,99590.31
2023-04-15T16:38:21.283Z,99594.19
2023-04-15T16:41:23.625Z,99595.97
2023-04-15T16:44:25.786Z,99604.13
2023-04-15T16:47:28.073Z,99608.66
2023-04-15T16:50:30.276Z,99612.97
2023-04-15T16:53:32.575Z,99617.72
2023-04-15T16:56:34.545Z,99633.63
2023-04-15T16:59:38.967Z,99632.56
2023-04-15T17:02:43.359Z,99634.25
2023-04-15T17:05:46.340Z,99639.97
2023-04-15T17:08:48.455Z,99642.37
2023-04-15T17:11:50.763Z,99647.62
2023-04-15T17:14:52.797Z,99640.94
2023-04-15T17:17:55.059Z,99653.06
2023-04-15T17:20:57.009Z,99654.25
2023-04-15T17:23:59.261Z,99656.28
2023-04-15T17:27:02.637Z,99655.28
2023-04-15T17:30:07.088Z,99661.44
2023-04-15T17:33:53.282Z,99665.34
2023-04-15T17:36:33.657Z,99671.28
2023-04-15T17:39:35.686Z,99680.87
2023-04-15T17:42:37.906Z,99681.09
2023-04-15T17:45:39.851Z,99678.09
2023-04-15T17:48:42.160Z,99678.31
2023-04-15T17:51:45.985Z,99681.19
2023-04-15T17:54:49.050Z,99695.16
2023-04-15T17:57:51.038Z,99695.81
2023-04-15T18:00:53.310Z,99696.25
2023-04-15T18:03:56.945Z,99700.28
2023-04-15T18:06:59.186Z,99705.53
2023-04-15T18:10:01.444Z,99705.41
2023-04-15T18:13:03.458Z,99704.28
2023-04-15T18:16:06.448Z,99704.78
2023-04-15T18:19:09.573Z,99714.47
2023-04-15T18:22:12.149Z,99721.78
2023-04-15T18:25:14.123Z,99727.03
2023-04-15T18:28:16.409Z,99733.00
2023-04-15T18:31:18.425Z,99733.00
2023-04-15T18:34:20.725Z,99738.22
2023-04-15T18:37:22.760Z,99743.78
2023-04-15T18:40:25.041Z,99747.34
2023-04-15T18:43:27.025Z,99749.22
2023-04-15T18:46:29.448Z,99762.22
2023-04-15T18:49:34.228Z,99763.16
2023-04-15T18:52:36.730Z,99774.53
2023-04-15T18:55:39.174Z,99786.88
2023-04-15T18:59:27.478Z,99781.31
2023-04-15T19:02:06.519Z,99779.75
2023-04-15T19:05:08.993Z,99792.09
2023-04-15T19:08:13.354Z,99789.50
2023-04-15T19:11:15.815Z,99792.09
2023-04-15T19:14:17.919Z,99802.37
2023-04-15T19:17:20.557Z,99814.12
2023-04-15T19:20:22.696Z,99815.44
2023-04-15T19:23:24.965Z,99819.09
2023-04-15T19:26:27.044Z,99825.03
2023-04-15T19:29:29.396Z,99831.69
2023-04-15T19:32:31.462Z,99835.03
2023-04-15T19:35:33.796Z,99837.75
2023-04-15T19:38:36.122Z,99840.09
2023-04-15T19:41:39.273Z,99841.06
2023-04-15T19:44:44.217Z,99845.16
2023-04-15T19:47:46.560Z,99851.34
2023-04-15T19:50:48.743Z,99853.72
2023-04-15T19:53:51.290Z,99852.50
2023-04-15T19:56:53.273Z,99858.31
2023-04-15T19:59:55.565Z,99854.88
2023-04-15T20:02:57.899Z,99858.97
2023-04-15T20:06:00.342Z,99863.19
2023-04-15T20:09:02.330Z,99858.22
2023-04-15T20:12:48.059Z,99865.88
2023-04-15T20:15:27.310Z,99862.13
2023-04-15T20:18:29.718Z,99868.44
2023-04-15T20:21:31.681Z,99857.84
2023-04-15T20:24:36.232Z,99868.69
2023-04-15T20:27:38.250Z,99860.00
2023-04-15T20:30:40.880Z,99864.34
2023-04-15T20:33:42.836Z,99864.59
2023-04-15T20:36:45.188Z,99868.97
2023-04-15T20:39:47.218Z,99873.00
2023-04-15T20:42:49.429Z,99876.12
2023-04-15T20:45:54.054Z,99870.25
2023-04-15T20:48:56.375Z,99876.78
2023-04-15T20:51:58.417Z,99874.09
2023-04-15T20:55:00.712Z,99879.69
2023-04-15T20:58:02.762Z,99882.19
2023-04-15T21:01:05.090Z,99886.91
2023-04-15T21:04:07.137Z,99890.41
2023-04-15T21:07:09.812Z,99895.75
2023-04-15T21:10:11.824Z,99900.81
2023-04-15T21:13:17.558Z,99902.37
2023-04-15T21:16:19.566Z,99903.56
2023-04-15T21:19:21.870Z,99909.84
2023-04-15T21:22:23.869Z,99909.56
2023-04-15T21:25:26.196Z,99914.22
2023-04-15T21:28:28.469Z,99921.50
2023-04-15T21:31:30.824Z,99923.81
2023-04-15T21:34:32.831Z,99923.75
2023-04-15T21:37:35.131Z,99928.31
2023-04-15T21:40:40.489Z,99928.72
2023-04-15T21:43:42.757Z,99928.50
2023-04-15T21:46:45.951Z,99932.31
2023-04-15T21:49:48.571Z,99931.28
2023-04-15T21:52:50.602Z,99932.19
2023-04-15T21:55:53.028Z,99933.88
2023-04-15T21:58:59.004Z,99940.81
2023-04-15T22:02:01.426Z,99942.03
2023-04-15T22:05:04.517Z,99942.41
2023-04-15T22:08:07.835Z,99942.69
2023-04-15T22:11:10.966Z,99940.66
2023-04-15T22:14:12.998Z,99945.13
2023-04-15T22:17:15.257Z,99946.88
2023-04-15T22:20:17.337Z,99948.03
2023-04-15T22:23:20.531Z,99947.09
2023-04-15T22:26:22.497Z,99945.94
2023-04-15T22:29:25.246Z,99952.66
2023-04-15T22:32:27.330Z,99946.13
2023-04-15T22:35:29.592Z,99945.19
2023-04-15T22:38:31.670Z,99946.13
2023-04-15T22:41:34.015Z,99946.06
2023-04-15T22:44:36.025Z,99948.84
2023-04-15T22:47:38.335Z,99955.37
2023-04-15T22:50:40.592Z,99957.88
2023-04-15T22:53:42.893Z,99956.59
2023-04-15T22:56:44.913Z,99951.84
2023-04-15T22:59:47.143Z,99958.28
2023-04-15T23:02:49.220Z,99956.03
2023-04-15T23:05:51.816Z,99949.78
2023-04-15T23:08:53.869Z,99962.50
2023-04-15T23:11:56.814Z,99959.12
2023-04-15T23:14:58.764Z,99953.97
2023-04-15T23:18:02.055Z,99954.28
2023-04-15T23:21:04.273Z,99954.72
2023-04-15T23:24:06.735Z,99951.94
2023-04-15T23:27:08.783Z,99950.91
2023-04-15T23:30:11.319Z,99970.16
2023-04-15T23:33:13.269Z,99962.56
2023-04-15T23:36:15.575Z,99975.25
2023-04-15T23:39:17.602Z,99968.25
2023-04-15T23:42:19.892Z,99971.63
2023-04-15T23:45:21.984Z,99976.00
2023-04-15T23:48:24.244Z,99974.16
2023-04-15T23:51:26.193Z,99973.00
2023-04-15T23:54:28.450Z,99979.72
2023-04-15T23:57:30.444Z,99975.81
